Lake Tahoe Airport
KTVL : now visible

Airfield :











YOU CAN JOIN US ON...

 
LOGIN :

Register | Disclaimer

   EN    FR    IT 

 









Legend :    VFR   Marginal VFR   IFR   Intensive IFR   Very Intensive IFR
Visi :
Ceiling :
>= 8 km
>= 3000ft
5 to 8 km
1000 to 3000 ft
1500m to 5 km
500 to 1000 ft
800 to 1500m
200 to 500 ft
< 800m
< 200 ft
Symbols :   Thunderstorms  Fog  Heavy snow  Heavy precipitations  Wind > 20 kt






- Airport Elevation : 6264 ft
- IATA code : TVL


KTVL - Lake Tahoe

CURRENT METAR :
  • 281253Z AUTO 00000KT 10SM CLR M04/M07 A3030 RMK AO2 SLP250 T10391067

EXPIRED METARs :
  • 281153Z AUTO 00000KT 10SM CLR M04/M07 A3030 RMK AO2 SLP246 T10391067 11011 21039 56010
  • 281053Z AUTO 17003KT 10SM CLR M03/M06 A3031 RMK AO2 SLP248 T10331061

TAF KTVL
Valid from the 28 at 12:00 until the 29 at 12:00 UTC


281135Z 2812/2912 19003KT P6SM SCT200
FM282000 20010KT P6SM SCT100 BKN150
FM290400 19007KT P6SM SCT100 BKN150 WS020/22045KT



MET'MAP, your aeronautical weather chart ! - Copyright ORBIFLY December 2007 - Disclaimer

ORBIFLY MET'MAP TEAM :

Programming & Development : Alexandra Zaïnal
Concept & original design : Baudouin d'Aumeries
Assistance for programming : Marc-Olivier Méhu
Technical & hardware support : Manuel Goepfert

Contact : metmap@orbifly.com




SOURCES & CREDITS :

   NOAA       Earth
Advisory